Time;durP1;ratioP1;P1;durP2;ratioP2;P2;SDS_P1;SDS_P2;PMS_P1;PMS_P2;Temp;Humidity;BMP_temperature;BMP_pressure;BME280_temperature;BME280_humidity;BME280_pressure;Samples;Min_cycle;Max_cycle;Signal;HPM_P1;HPM_P2
2022/08/12 00:44:24;;;;;;;4.93;1.55;;;;;;;;;;5065702;28;20055;-74
2022/08/12 00:46:56;;;;;;;3.05;1.60;;;;;;;;;;5063378;28;20028;-82
2022/08/12 00:49:23;;;;;;;5.32;2.10;;;;;;;;;;5065824;28;20135;-74
2022/08/12 00:52:05;;;;;;;4.13;1.80;;;;;;;;;;5065178;28;20036;-75
2022/08/12 00:54:34;;;;;;;;;;;;;;;;;;5062917;28;20033;-74
2022/08/12 00:57:13;;;;;;;2.42;1.70;;;;;;;;;;5066353;28;20355;-74
2022/08/12 00:59:44;;;;;;;4.35;1.75;;;;;;;;;;5071583;28;20028;-77
2022/08/12 01:02:14;;;;;;;3.08;1.58;;;;;;;;;;5064943;28;20078;-76
2022/08/12 01:12:57;;;;;;;3.22;1.67;;;;;;;;;;5058313;28;20051;-74
2022/08/12 01:15:23;;;;;;;2.58;1.88;;;;;;;;;;5064438;28;20112;-80
2022/08/12 01:17:49;;;;;;;2.78;1.60;;;;;;;;;;5066700;28;20098;-76
2022/08/12 01:20:36;;;;;;;2.55;1.75;;;;;;;;;;5062968;28;20028;-81
2022/08/12 01:23:49;;;;;;;3.10;1.83;;;;;;;;;;5066882;28;20032;-77
2022/08/12 01:26:22;;;;;;;4.07;1.92;;;;;;;;;;5066047;28;20396;-77
2022/08/12 01:28:53;;;;;;;3.88;1.98;;;;;;;;;;5060892;28;20114;-77
2022/08/12 01:31:19;;;;;;;3.15;2.00;;;;;;;;;;5063361;28;20056;-77
2022/08/12 01:34:10;;;;;;;3.30;1.90;;;;;;;;;;5067082;28;20045;-75
2022/08/12 01:36:35;;;;;;;2.95;2.00;;;;;;;;;;5057976;28;20439;-80
2022/08/12 01:39:01;;;;;;;3.03;1.88;;;;;;;;;;5059944;28;20055;-74
2022/08/12 01:41:29;;;;;;;3.65;2.03;;;;;;;;;;5067715;28;20047;-74
2022/08/12 01:43:59;;;;;;;3.63;2.20;;;;;;;;;;5064248;28;20043;-80
2022/08/12 01:47:02;;;;;;;3.67;1.98;;;;;;;;;;5066349;28;20036;-74
2022/08/12 01:49:49;;;;;;;3.73;2.10;;;;;;;;;;5088548;28;20451;-73
2022/08/12 01:52:43;;;;;;;3.30;2.20;;;;;;;;;;5070820;28;20063;-77
2022/08/12 01:55:11;;;;;;;3.78;2.20;;;;;;;;;;5066438;28;20024;-75
2022/08/12 01:57:49;;;;;;;3.25;2.00;;;;;;;;;;5069869;28;20032;-75
2022/08/12 02:00:17;;;;;;;3.40;2.15;;;;;;;;;;5074113;28;20038;-77
2022/08/12 02:02:47;;;;;;;3.75;1.80;;;;;;;;;;5073826;28;20024;-81
2022/08/12 02:11:15;;;;;;;5.65;2.10;;;;;;;;;;5070989;28;20035;-76
2022/08/12 02:14:22;;;;;;;3.72;2.00;;;;;;;;;;5072241;28;20028;-80
2022/08/12 02:16:48;;;;;;;4.10;2.20;;;;;;;;;;5064450;28;21347;-76
2022/08/12 02:19:38;;;;;;;4.30;2.42;;;;;;;;;;5069544;28;20024;-77
2022/08/12 02:22:25;;;;;;;4.45;2.60;;;;;;;;;;5071045;28;20024;-76
2022/08/12 02:24:53;;;;;;;5.30;2.20;;;;;;;;;;5069005;28;20037;-81
2022/08/12 02:27:20;;;;;;;4.63;2.60;;;;;;;;;;5069982;28;20028;-76
2022/08/12 02:29:46;;;;;;;3.15;2.45;;;;;;;;;;5074501;28;20476;-75
2022/08/12 02:32:13;;;;;;;5.03;2.40;;;;;;;;;;5069113;28;20025;-77
2022/08/12 02:34:38;;;;;;;3.75;2.53;;;;;;;;;;5069540;28;20072;-74
2022/08/12 02:37:07;;;;;;;4.53;2.97;;;;;;;;;;5068958;28;20067;-75
2022/08/12 02:39:36;;;;;;;4.05;2.78;;;;;;;;;;5073603;28;20377;-77
2022/08/12 02:42:03;;;;;;;4.68;2.70;;;;;;;;;;5073314;28;20028;-76
2022/08/12 02:44:34;;;;;;;4.80;2.58;;;;;;;;;;5069798;28;20024;-77
2022/08/12 02:47:05;;;;;;;3.55;2.50;;;;;;;;;;5065047;28;20069;-74
2022/08/12 02:49:38;;;;;;;6.00;2.75;;;;;;;;;;5070468;28;20028;-75
2022/08/12 02:52:04;;;;;;;4.45;2.80;;;;;;;;;;5069366;28;20043;-76
2022/08/12 02:54:30;;;;;;;4.82;2.80;;;;;;;;;;5067415;28;20020;-74
2022/08/12 02:56:56;;;;;;;3.30;2.47;;;;;;;;;;5071614;28;20079;-74
2022/08/12 02:59:25;;;;;;;3.80;2.42;;;;;;;;;;5064276;28;20033;-75
2022/08/12 03:01:58;;;;;;;3.40;2.40;;;;;;;;;;5062498;28;20024;-76
2022/08/12 03:04:33;;;;;;;4.28;2.50;;;;;;;;;;5067303;28;20044;-77
2022/08/12 03:07:29;;;;;;;3.47;2.33;;;;;;;;;;5066261;28;20032;-80
2022/08/12 03:10:04;;;;;;;4.72;2.63;;;;;;;;;;5065058;28;20105;-77
2022/08/12 03:12:33;;;;;;;4.45;2.40;;;;;;;;;;5060152;28;20113;-77
2022/08/12 03:15:03;;;;;;;4.53;2.50;;;;;;;;;;5072005;28;20056;-82
2022/08/12 03:17:35;;;;;;;3.15;2.13;;;;;;;;;;5068997;28;20089;-78
2022/08/12 03:20:02;;;;;;;3.03;2.35;;;;;;;;;;5069006;28;20181;-75
2022/08/12 03:22:30;;;;;;;4.85;2.50;;;;;;;;;;5065985;28;20027;-74
2022/08/12 03:24:57;;;;;;;3.63;2.10;;;;;;;;;;5060940;28;20028;-81
2022/08/12 03:27:25;;;;;;;2.90;1.90;;;;;;;;;;5064530;28;20412;-81
2022/08/12 03:29:54;;;;;;;3.92;2.22;;;;;;;;;;5057432;28;20384;-77
2022/08/12 03:32:23;;;;;;;4.63;2.40;;;;;;;;;;5065727;28;20104;-82
2022/08/12 03:34:49;;;;;;;3.97;2.20;;;;;;;;;;5061465;28;21264;-81
2022/08/12 03:37:19;;;;;;;5.45;2.67;;;;;;;;;;5069111;28;20029;-77
2022/08/12 03:39:45;;;;;;;4.38;2.50;;;;;;;;;;5068086;28;20044;-77
2022/08/12 03:42:23;;;;;;;3.95;2.38;;;;;;;;;;5073217;28;20032;-77
2022/08/12 04:01:39;;;;;;;3.47;2.38;;;;;;;;;;5067074;28;20035;-74
2022/08/12 04:04:07;;;;;;;4.18;2.95;;;;;;;;;;5063925;28;20025;-76
2022/08/12 04:06:34;;;;;;;3.42;2.40;;;;;;;;;;5064885;28;20030;-74
2022/08/12 04:08:59;;;;;;;3.67;2.42;;;;;;;;;;5063268;28;20098;-81
2022/08/12 04:14:21;;;;;;;4.25;2.63;;;;;;;;;;5069423;28;20075;-77
2022/08/12 04:16:48;;;;;;;5.45;2.60;;;;;;;;;;5062630;28;20028;-82
2022/08/12 04:19:14;;;;;;;4.28;2.58;;;;;;;;;;5062888;28;20536;-73
2022/08/12 04:21:40;;;;;;;3.85;2.40;;;;;;;;;;5065057;28;20468;-75
2022/08/12 04:24:05;;;;;;;4.30;2.40;;;;;;;;;;5068568;28;20037;-75
2022/08/12 04:26:31;;;;;;;3.35;2.45;;;;;;;;;;5064913;28;20056;-75
2022/08/12 04:28:58;;;;;;;5.00;2.58;;;;;;;;;;5065070;28;20053;-77
2022/08/12 04:31:41;;;;;;;4.20;2.50;;;;;;;;;;5063582;28;20029;-78
2022/08/12 04:34:08;;;;;;;4.07;2.33;;;;;;;;;;5061530;28;20072;-81
2022/08/12 04:36:36;;;;;;;3.95;2.60;;;;;;;;;;5066748;28;20040;-74
2022/08/12 04:39:03;;;;;;;4.70;2.95;;;;;;;;;;5062193;28;20512;-76
2022/08/12 04:41:30;;;;;;;5.38;2.70;;;;;;;;;;5064019;28;20056;-74
2022/08/12 04:43:55;;;;;;;5.20;2.60;;;;;;;;;;5067677;28;20067;-80
2022/08/12 04:46:23;;;;;;;3.67;2.63;;;;;;;;;;5064506;28;20028;-77
2022/08/12 04:48:48;;;;;;;5.03;2.83;;;;;;;;;;5063374;28;20091;-77
2022/08/12 04:51:14;;;;;;;3.63;2.60;;;;;;;;;;5052329;28;21009;-77
2022/08/12 04:53:40;;;;;;;5.43;2.60;;;;;;;;;;5064261;28;20067;-77
2022/08/12 04:56:06;;;;;;;6.60;2.90;;;;;;;;;;5061709;28;20036;-80
2022/08/12 04:58:33;;;;;;;3.50;2.60;;;;;;;;;;5065811;28;20043;-82
2022/08/12 05:00:58;;;;;;;4.20;3.00;;;;;;;;;;5063236;28;20025;-76
2022/08/12 05:03:25;;;;;;;5.22;2.70;;;;;;;;;;5065357;28;20043;-82
2022/08/12 05:05:51;;;;;;;3.90;2.53;;;;;;;;;;5060277;28;20040;-77
2022/08/12 05:08:16;;;;;;;4.07;2.40;;;;;;;;;;5062158;28;20045;-81
2022/08/12 05:10:46;;;;;;;4.38;2.70;;;;;;;;;;5060934;28;20118;-81
2022/08/12 05:13:18;;;;;;;4.35;2.97;;;;;;;;;;5061605;28;20029;-74
2022/08/12 05:15:46;;;;;;;6.27;2.53;;;;;;;;;;5062095;28;20028;-81
2022/08/12 05:18:12;;;;;;;4.57;2.60;;;;;;;;;;5065789;28;20167;-75
2022/08/12 05:20:38;;;;;;;4.65;3.10;;;;;;;;;;5067670;28;20103;-80
2022/08/12 05:23:18;;;;;;;5.78;3.20;;;;;;;;;;5064166;28;20145;-77
2022/08/12 05:25:46;;;;;;;4.10;2.80;;;;;;;;;;5063923;28;20043;-75
2022/08/12 05:28:13;;;;;;;4.95;3.05;;;;;;;;;;5067407;28;20107;-74
2022/08/12 05:30:40;;;;;;;4.38;2.90;;;;;;;;;;5064842;28;20507;-81
2022/08/12 05:33:05;;;;;;;3.58;2.67;;;;;;;;;;5066029;28;20497;-74
2022/08/12 05:35:38;;;;;;;5.28;2.60;;;;;;;;;;5064661;28;20065;-73
2022/08/12 05:40:53;;;;;;;4.47;2.63;;;;;;;;;;5058928;28;20032;-76
2022/08/12 05:43:19;;;;;;;4.00;2.55;;;;;;;;;;5063497;28;20060;-81
2022/08/12 05:45:44;;;;;;;6.35;2.70;;;;;;;;;;5064027;28;20028;-77
2022/08/12 05:48:11;;;;;;;5.68;2.85;;;;;;;;;;5067799;28;20027;-82
2022/08/12 05:50:36;;;;;;;3.88;2.75;;;;;;;;;;5061670;28;20437;-81
2022/08/12 05:53:02;;;;;;;4.38;2.95;;;;;;;;;;5062152;28;20052;-77
2022/08/12 05:55:28;;;;;;;5.07;3.00;;;;;;;;;;5065709;28;20032;-75
2022/08/12 05:57:55;;;;;;;3.60;2.67;;;;;;;;;;5067541;28;20500;-82
2022/08/12 06:00:24;;;;;;;3.88;2.90;;;;;;;;;;5066201;28;20111;-77
2022/08/12 06:02:55;;;;;;;4.10;2.97;;;;;;;;;;5059641;28;20016;-76
2022/08/12 06:05:20;;;;;;;5.45;3.38;;;;;;;;;;5062031;28;21455;-81
2022/08/12 06:07:46;;;;;;;5.05;3.20;;;;;;;;;;5059864;28;20028;-79
2022/08/12 06:10:12;;;;;;;4.60;3.30;;;;;;;;;;5060586;28;20361;-76
2022/08/12 06:12:37;;;;;;;6.88;3.20;;;;;;;;;;5058907;28;20039;-74
2022/08/12 06:15:03;;;;;;;7.60;3.20;;;;;;;;;;5058285;28;20025;-75
2022/08/12 06:17:29;;;;;;;4.88;3.38;;;;;;;;;;5060242;28;20040;-77
2022/08/12 06:19:57;;;;;;;6.93;3.75;;;;;;;;;;5054038;28;20027;-76
2022/08/12 06:22:25;;;;;;;5.35;3.47;;;;;;;;;;5055140;28;20031;-73
2022/08/12 06:24:52;;;;;;;5.60;3.22;;;;;;;;;;5060205;28;20105;-77
2022/08/12 06:27:18;;;;;;;5.82;4.03;;;;;;;;;;5057377;28;20480;-81
2022/08/12 06:29:43;;;;;;;5.10;3.35;;;;;;;;;;5059862;28;20039;-80
2022/08/12 06:32:09;;;;;;;4.70;3.20;;;;;;;;;;5059128;28;20028;-76
2022/08/12 06:34:35;;;;;;;5.57;3.70;;;;;;;;;;5062431;28;20048;-76
2022/08/12 06:37:00;;;;;;;6.25;3.47;;;;;;;;;;5062103;28;20369;-81
2022/08/12 06:39:26;;;;;;;5.90;3.50;;;;;;;;;;5062020;28;20464;-76
2022/08/12 06:44:35;;;;;;;6.60;4.07;;;;;;;;;;5074159;28;20035;-74
2022/08/12 06:47:00;;;;;;;7.22;4.20;;;;;;;;;;5066976;28;20484;-81
2022/08/12 06:49:27;;;;;;;6.90;4.20;;;;;;;;;;5058968;28;20026;-75
2022/08/12 06:51:54;;;;;;;6.68;4.45;;;;;;;;;;5071656;28;20500;-74
2022/08/12 06:54:20;;;;;;;5.88;4.30;;;;;;;;;;5075239;28;20024;-81
2022/08/12 06:56:46;;;;;;;9.15;4.30;;;;;;;;;;5069786;28;20392;-75
2022/08/12 06:59:13;;;;;;;5.35;3.80;;;;;;;;;;5075668;28;20037;-74
2022/08/12 07:01:39;;;;;;;7.70;4.50;;;;;;;;;;5070494;28;20622;-75
2022/08/12 07:04:04;;;;;;;10.95;4.82;;;;;;;;;;5069843;28;20060;-81
2022/08/12 07:06:30;;;;;;;11.40;3.92;;;;;;;;;;5071106;28;20552;-74
2022/08/12 07:08:55;;;;;;;7.47;4.53;;;;;;;;;;5071240;28;20036;-78
2022/08/12 07:11:21;;;;;;;5.10;4.00;;;;;;;;;;5070847;28;20464;-81
2022/08/12 07:13:49;;;;;;;5.32;4.30;;;;;;;;;;5069938;28;20060;-74
2022/08/12 07:16:20;;;;;;;7.32;4.22;;;;;;;;;;5065837;28;20052;-78
2022/08/12 07:18:49;;;;;;;7.15;4.45;;;;;;;;;;5065191;28;20035;-77
2022/08/12 07:21:15;;;;;;;5.57;4.10;;;;;;;;;;5070313;28;20033;-81
2022/08/12 07:23:42;;;;;;;6.13;3.88;;;;;;;;;;5068480;28;20024;-75
2022/08/12 07:26:09;;;;;;;4.90;3.85;;;;;;;;;;5069297;28;20078;-74
2022/08/12 07:28:38;;;;;;;6.78;3.85;;;;;;;;;;5067720;28;20039;-78
2022/08/12 07:31:07;;;;;;;5.70;3.15;;;;;;;;;;5066482;28;20161;-75
2022/08/12 07:33:37;;;;;;;6.57;4.20;;;;;;;;;;5064386;28;20098;-75
2022/08/12 07:36:05;;;;;;;5.00;3.47;;;;;;;;;;5063105;28;20171;-76
2022/08/12 07:38:33;;;;;;;7.20;3.42;;;;;;;;;;5067730;28;20500;-75
2022/08/12 07:41:06;;;;;;;7.82;3.53;;;;;;;;;;5064802;28;20099;-75
2022/08/12 07:43:35;;;;;;;7.50;3.95;;;;;;;;;;5067870;28;20039;-76
2022/08/12 07:46:04;;;;;;;6.72;3.70;;;;;;;;;;5064768;28;20032;-77
2022/08/12 07:48:39;;;;;;;5.82;3.55;;;;;;;;;;5070835;28;20031;-75
2022/08/12 07:51:05;;;;;;;6.20;3.30;;;;;;;;;;5060988;28;20183;-77
2022/08/12 07:53:32;;;;;;;5.80;3.80;;;;;;;;;;5069592;28;20123;-75
2022/08/12 07:55:57;;;;;;;7.53;3.30;;;;;;;;;;5066137;28;20469;-76
2022/08/12 07:58:24;;;;;;;5.15;3.28;;;;;;;;;;5067658;28;20039;-75
2022/08/12 08:00:49;;;;;;;6.20;3.10;;;;;;;;;;5063396;28;20035;-76
2022/08/12 08:03:15;;;;;;;7.13;3.50;;;;;;;;;;5061660;28;20029;-78
2022/08/12 08:05:48;;;;;;;6.93;3.50;;;;;;;;;;5069527;28;20496;-76
2022/08/12 08:08:21;;;;;;;6.68;3.30;;;;;;;;;;5072747;28;20032;-75
2022/08/12 08:10:47;;;;;;;;;;;;;;;;;;5058383;28;20037;-74
2022/08/12 08:13:14;;;;;;;5.63;3.30;;;;;;;;;;5066372;28;20451;-76
2022/08/12 08:15:39;;;;;;;6.15;3.08;;;;;;;;;;5070544;28;20027;-77
2022/08/12 08:18:10;;;;;;;5.88;3.10;;;;;;;;;;5071349;28;20472;-75
2022/08/12 08:20:40;;;;;;;4.82;3.20;;;;;;;;;;5063051;28;20051;-75
2022/08/12 08:23:15;;;;;;;5.85;2.97;;;;;;;;;;5070169;28;20027;-75
2022/08/12 08:25:42;;;;;;;5.32;3.08;;;;;;;;;;5067767;28;20028;-76
2022/08/12 08:28:13;;;;;;;5.55;3.10;;;;;;;;;;5074711;28;20035;-74
2022/08/12 08:30:42;;;;;;;6.10;2.97;;;;;;;;;;5068210;28;20469;-74
2022/08/12 08:33:09;;;;;;;4.90;2.95;;;;;;;;;;5069847;28;20055;-75
2022/08/12 08:35:36;;;;;;;5.03;2.95;;;;;;;;;;5065923;28;20032;-74
2022/08/12 08:38:13;;;;;;;4.85;2.85;;;;;;;;;;5066937;28;20036;-76
2022/08/12 08:43:31;;;;;;;4.85;3.30;;;;;;;;;;5054896;28;20036;-76
2022/08/12 08:45:57;;;;;;;6.55;3.03;;;;;;;;;;5069352;28;20025;-76
2022/08/12 08:48:23;;;;;;;3.75;2.90;;;;;;;;;;5071078;28;20466;-84
2022/08/12 08:50:50;;;;;;;5.13;2.92;;;;;;;;;;5068792;28;20468;-79
2022/08/12 08:53:16;;;;;;;8.57;3.28;;;;;;;;;;5067555;28;20024;-84
2022/08/12 08:55:41;;;;;;;4.60;2.70;;;;;;;;;;5069078;28;20043;-82
2022/08/12 08:58:07;;;;;;;4.80;3.25;;;;;;;;;;5061399;28;20607;-84
2022/08/12 09:00:37;;;;;;;6.13;2.90;;;;;;;;;;5064863;28;20122;-81
2022/08/12 09:03:11;;;;;;;5.53;3.10;;;;;;;;;;5064719;28;20028;-76
2022/08/12 09:05:37;;;;;;;5.40;2.78;;;;;;;;;;5067467;28;20020;-76
2022/08/12 09:08:04;;;;;;;6.88;2.80;;;;;;;;;;5070708;28;20400;-76
2022/08/12 09:10:32;;;;;;;4.05;2.78;;;;;;;;;;5064956;28;20115;-76
2022/08/12 09:15:43;;;;;;;5.00;2.78;;;;;;;;;;5066940;28;20031;-78
2022/08/12 09:18:10;;;;;;;5.07;2.90;;;;;;;;;;5067055;28;20031;-83
2022/08/12 09:20:37;;;;;;;5.38;3.17;;;;;;;;;;5058836;28;20025;-77
2022/08/12 09:23:09;;;;;;;5.05;2.90;;;;;;;;;;5068147;28;20446;-78
2022/08/12 09:25:39;;;;;;;5.60;3.22;;;;;;;;;;5064559;28;20032;-78
2022/08/12 09:28:08;;;;;;;6.65;2.90;;;;;;;;;;5059250;28;20037;-78
2022/08/12 09:30:35;;;;;;;5.38;2.70;;;;;;;;;;5061183;28;20033;-77
2022/08/12 09:33:01;;;;;;;7.28;2.70;;;;;;;;;;5069613;28;20029;-78
2022/08/12 09:35:32;;;;;;;5.43;3.15;;;;;;;;;;5057930;28;20039;-85
2022/08/12 09:38:00;;;;;;;4.75;2.70;;;;;;;;;;5056290;28;20397;-78
2022/08/12 09:40:28;;;;;;;5.28;2.50;;;;;;;;;;5057340;28;20035;-77
2022/08/12 09:45:38;;;;;;;6.07;2.50;;;;;;;;;;5066442;28;20081;-85
2022/08/12 09:48:07;;;;;;;5.05;2.80;;;;;;;;;;5068545;28;20028;-78
2022/08/12 09:50:34;;;;;;;7.03;2.50;;;;;;;;;;5068997;28;20094;-76
2022/08/12 09:53:15;;;;;;;4.43;2.47;;;;;;;;;;5070544;28;20047;-84
2022/08/12 09:55:52;;;;;;;5.75;2.65;;;;;;;;;;5064964;28;20036;-78
2022/08/12 09:58:24;;;;;;;4.05;2.60;;;;;;;;;;5066166;28;20028;-87
2022/08/12 10:00:53;;;;;;;4.97;2.67;;;;;;;;;;5058643;28;20043;-79
2022/08/12 10:03:20;;;;;;;5.30;2.85;;;;;;;;;;5061817;28;20074;-79
2022/08/12 10:05:47;;;;;;;6.32;2.30;;;;;;;;;;5058799;28;20074;-77
2022/08/12 10:08:16;;;;;;;4.55;2.50;;;;;;;;;;5073158;28;20402;-78
2022/08/12 10:13:42;;;;;;;3.28;2.25;;;;;;;;;;5050251;28;20127;-79
2022/08/12 10:16:10;;;;;;;4.60;2.40;;;;;;;;;;5065142;28;20031;-77
2022/08/12 10:18:37;;;;;;;4.25;2.50;;;;;;;;;;5070744;28;20054;-78
2022/08/12 10:21:35;;;;;;;3.22;2.20;;;;;;;;;;5067892;28;20086;-76
2022/08/12 10:24:03;;;;;;;5.00;2.08;;;;;;;;;;5055597;28;20036;-79
2022/08/12 10:31:59;;;;;;;3.63;2.33;;;;;;;;;;5069318;28;20069;-85
2022/08/12 10:34:25;;;;;;;2.97;2.20;;;;;;;;;;5067618;28;20048;-76
2022/08/12 10:36:57;;;;;;;3.03;2.10;;;;;;;;;;5072916;28;20035;-77
2022/08/12 10:39:26;;;;;;;2.88;2.03;;;;;;;;;;5066062;28;20071;-78
2022/08/12 10:44:37;;;;;;;9.80;2.20;;;;;;;;;;5074154;28;20078;-77
2022/08/12 10:47:03;;;;;;;4.10;2.08;;;;;;;;;;5073684;28;20481;-86
2022/08/12 10:49:33;;;;;;;4.07;2.35;;;;;;;;;;5068476;28;20031;-80
2022/08/12 10:52:01;;;;;;;4.35;2.53;;;;;;;;;;5074373;28;20023;-78
2022/08/12 10:54:27;;;;;;;4.50;2.08;;;;;;;;;;5076614;28;20082;-76
2022/08/12 10:56:54;;;;;;;5.50;2.20;;;;;;;;;;5075825;28;20103;-80
2022/08/12 10:59:20;;;;;;;4.10;2.60;;;;;;;;;;5070913;28;20051;-78
2022/08/12 11:01:47;;;;;;;3.80;2.30;;;;;;;;;;5072619;28;20372;-80
2022/08/12 11:04:13;;;;;;;4.15;2.10;;;;;;;;;;5077224;28;20024;-86
2022/08/12 11:06:46;;;;;;;3.85;2.30;;;;;;;;;;5072803;28;20034;-76
2022/08/12 11:09:18;;;;;;;5.07;2.33;;;;;;;;;;5068834;28;20672;-77
2022/08/12 11:11:47;;;;;;;3.78;2.42;;;;;;;;;;5066832;28;20460;-79
2022/08/12 11:14:27;;;;;;;4.10;2.78;;;;;;;;;;5068094;28;20044;-77
2022/08/12 11:16:56;;;;;;;6.13;2.30;;;;;;;;;;5052388;28;20268;-78
2022/08/12 11:19:22;;;;;;;5.05;2.90;;;;;;;;;;5070763;28;20550;-77
2022/08/12 11:21:48;;;;;;;6.22;2.20;;;;;;;;;;5070360;28;20032;-78
2022/08/12 11:24:13;;;;;;;5.10;2.53;;;;;;;;;;5067007;28;20059;-76
2022/08/12 11:26:38;;;;;;;3.30;2.42;;;;;;;;;;5067525;28;20384;-78
2022/08/12 11:29:04;;;;;;;5.28;2.75;;;;;;;;;;5064974;28;20163;-83
2022/08/12 11:31:29;;;;;;;3.65;2.40;;;;;;;;;;5065212;28;20484;-85
2022/08/12 11:33:55;;;;;;;4.22;2.55;;;;;;;;;;5061102;28;20103;-80
2022/08/12 11:36:20;;;;;;;3.20;2.45;;;;;;;;;;5064476;28;20566;-78
2022/08/12 11:38:45;;;;;;;4.25;2.85;;;;;;;;;;5054185;28;20034;-77
2022/08/12 11:41:11;;;;;;;6.60;2.42;;;;;;;;;;5066862;28;20095;-78
2022/08/12 11:43:36;;;;;;;4.60;2.42;;;;;;;;;;5064979;28;20028;-86
2022/08/12 11:46:01;;;;;;;4.22;2.47;;;;;;;;;;5067749;28;20036;-81
2022/08/12 11:48:27;;;;;;;5.55;2.80;;;;;;;;;;5072838;28;20458;-86
2022/08/12 11:50:53;;;;;;;5.43;2.50;;;;;;;;;;5056661;28;20035;-79
2022/08/12 11:53:18;;;;;;;3.83;2.70;;;;;;;;;;5059424;28;20032;-84
2022/08/12 11:55:43;;;;;;;3.35;2.58;;;;;;;;;;5063871;28;20055;-77
2022/08/12 11:58:10;;;;;;;4.57;2.05;;;;;;;;;;5070189;28;20025;-76
2022/08/12 12:00:35;;;;;;;4.03;2.30;;;;;;;;;;5064736;28;20035;-79
2022/08/12 12:03:01;;;;;;;4.25;2.30;;;;;;;;;;5069820;28;20032;-79
2022/08/12 12:05:26;;;;;;;3.13;2.30;;;;;;;;;;5087935;28;20033;-78
2022/08/12 12:07:51;;;;;;;5.18;2.30;;;;;;;;;;5067377;28;20048;-78
2022/08/12 12:10:18;;;;;;;4.53;2.42;;;;;;;;;;5062628;28;20119;-86
2022/08/12 12:12:44;;;;;;;5.47;2.33;;;;;;;;;;5069214;28;20044;-77
2022/08/12 12:15:10;;;;;;;3.78;2.17;;;;;;;;;;5065930;28;20032;-80
2022/08/12 12:17:40;;;;;;;3.05;2.10;;;;;;;;;;5062217;28;20036;-85
2022/08/12 12:20:09;;;;;;;4.22;2.30;;;;;;;;;;5071290;28;20416;-79
2022/08/12 12:22:39;;;;;;;5.05;2.50;;;;;;;;;;5068838;28;20036;-81
2022/08/12 12:25:05;;;;;;;4.63;2.60;;;;;;;;;;5064965;28;20040;-79
2022/08/12 12:27:45;;;;;;;4.05;2.40;;;;;;;;;;5072002;28;20032;-80
2022/08/12 12:30:11;;;;;;;4.32;2.40;;;;;;;;;;5063230;28;20051;-79
2022/08/12 12:32:36;;;;;;;3.05;2.30;;;;;;;;;;5060051;28;20055;-78
2022/08/12 12:35:02;;;;;;;3.75;2.33;;;;;;;;;;5065849;28;20044;-85
2022/08/12 12:37:27;;;;;;;4.07;2.20;;;;;;;;;;5066999;28;20045;-89
2022/08/12 12:39:53;;;;;;;5.22;2.35;;;;;;;;;;5066662;28;20365;-79
2022/08/12 12:42:18;;;;;;;3.10;2.10;;;;;;;;;;5066293;28;20028;-87
2022/08/12 12:44:43;;;;;;;3.65;2.30;;;;;;;;;;5066388;28;20039;-85
2022/08/12 12:47:10;;;;;;;3.90;2.45;;;;;;;;;;5065070;28;20040;-77
2022/08/12 12:49:35;;;;;;;4.60;2.30;;;;;;;;;;5071499;28;20063;-81
2022/08/12 12:52:00;;;;;;;3.92;2.20;;;;;;;;;;5065558;28;20448;-77
2022/08/12 12:54:26;;;;;;;5.15;2.28;;;;;;;;;;5065075;28;20472;-81
2022/08/12 12:56:53;;;;;;;3.20;2.30;;;;;;;;;;5068319;28;20111;-88
2022/08/12 12:59:22;;;;;;;2.60;2.10;;;;;;;;;;5065624;28;20028;-86
2022/08/12 13:01:47;;;;;;;4.78;2.05;;;;;;;;;;5066957;28;20035;-79
2022/08/12 13:04:15;;;;;;;2.95;2.30;;;;;;;;;;5065928;28;20024;-79
2022/08/12 13:06:40;;;;;;;4.22;2.42;;;;;;;;;;5070545;28;20036;-77
2022/08/12 13:09:06;;;;;;;4.15;2.30;;;;;;;;;;5064598;28;20392;-87
2022/08/12 13:11:32;;;;;;;3.25;2.30;;;;;;;;;;5072208;28;20035;-82
2022/08/12 13:13:58;;;;;;;2.78;2.25;;;;;;;;;;5061442;28;20396;-80
2022/08/12 13:16:28;;;;;;;3.70;2.50;;;;;;;;;;5067673;28;20116;-80
2022/08/12 13:18:54;;;;;;;3.40;2.40;;;;;;;;;;5070328;28;20024;-86
2022/08/12 13:21:20;;;;;;;4.57;2.40;;;;;;;;;;5065030;28;20082;-79
2022/08/12 13:23:52;;;;;;;3.22;2.30;;;;;;;;;;5081262;28;20028;-77
2022/08/12 13:26:19;;;;;;;4.30;2.30;;;;;;;;;;5064874;28;20127;-79
2022/08/12 13:28:51;;;;;;;3.20;2.40;;;;;;;;;;5063144;28;20033;-80
2022/08/12 13:31:16;;;;;;;;;;;;;;;;;;5066890;28;20028;-80
2022/08/12 13:33:42;;;;;;;4.82;2.47;;;;;;;;;;5063736;28;19969;-85
2022/08/12 13:36:09;;;;;;;4.47;2.63;;;;;;;;;;5065669;28;20017;-78
2022/08/12 13:38:50;;;;;;;5.68;2.63;;;;;;;;;;5069618;28;20028;-86
2022/08/12 13:41:35;;;;;;;4.90;2.53;;;;;;;;;;5067050;28;20025;-80
2022/08/12 13:44:10;;;;;;;4.97;2.35;;;;;;;;;;5065904;28;20115;-80
2022/08/12 13:46:37;;;;;;;4.03;2.33;;;;;;;;;;5067519;28;20025;-79
2022/08/12 13:49:05;;;;;;;3.28;2.28;;;;;;;;;;5065916;28;20051;-80
2022/08/12 13:51:31;;;;;;;3.97;2.40;;;;;;;;;;5060326;28;20032;-87
2022/08/12 13:53:57;;;;;;;6.22;2.50;;;;;;;;;;5063517;28;20027;-77
2022/08/12 13:56:23;;;;;;;7.82;2.25;;;;;;;;;;5064191;28;20986;-80
2022/08/12 13:58:49;;;;;;;5.65;2.20;;;;;;;;;;5064359;28;20039;-79
2022/08/12 14:01:16;;;;;;;3.85;2.38;;;;;;;;;;5064811;28;20045;-86
2022/08/12 14:03:42;;;;;;;5.13;2.38;;;;;;;;;;5065941;28;20025;-79
2022/08/12 14:06:08;;;;;;;3.00;2.20;;;;;;;;;;5065787;28;20040;-80
2022/08/12 14:08:34;;;;;;;3.17;2.17;;;;;;;;;;5066741;28;20048;-79
2022/08/12 14:10:59;;;;;;;3.25;2.50;;;;;;;;;;5067316;28;20021;-78
2022/08/12 14:13:28;;;;;;;3.75;2.28;;;;;;;;;;5069785;28;20033;-87
2022/08/12 14:15:57;;;;;;;3.80;2.10;;;;;;;;;;5068466;28;20025;-87
2022/08/12 14:18:25;;;;;;;4.40;2.30;;;;;;;;;;5066241;28;20159;-78
2022/08/12 14:20:57;;;;;;;6.53;2.50;;;;;;;;;;5067015;28;20028;-82
2022/08/12 14:23:24;;;;;;;2.92;2.17;;;;;;;;;;5063558;28;20115;-79
2022/08/12 14:25:50;;;;;;;5.22;2.30;;;;;;;;;;5069816;28;20032;-84
2022/08/12 14:28:18;;;;;;;3.20;2.30;;;;;;;;;;5064930;28;20024;-81
2022/08/12 14:30:59;;;;;;;4.57;2.25;;;;;;;;;;5068759;28;20238;-82
2022/08/12 14:33:32;;;;;;;3.17;2.08;;;;;;;;;;5070712;28;20059;-82
2022/08/12 14:35:59;;;;;;;2.88;2.28;;;;;;;;;;5065920;28;20385;-79
2022/08/12 14:38:30;;;;;;;3.65;2.08;;;;;;;;;;5058175;28;20043;-79
2022/08/12 14:41:01;;;;;;;3.88;2.20;;;;;;;;;;5070947;28;20028;-87
2022/08/12 14:43:32;;;;;;;3.88;2.33;;;;;;;;;;5068460;28;20480;-79
2022/08/12 14:46:01;;;;;;;2.53;1.98;;;;;;;;;;5068336;28;20036;-79
2022/08/12 14:48:28;;;;;;;3.63;2.20;;;;;;;;;;5068793;28;20380;-88
2022/08/12 14:50:54;;;;;;;4.65;2.20;;;;;;;;;;5067314;28;20020;-79
2022/08/12 14:53:19;;;;;;;5.07;2.15;;;;;;;;;;5069125;28;20046;-85
2022/08/12 14:55:48;;;;;;;3.00;2.05;;;;;;;;;;5062995;28;20082;-80
2022/08/12 14:58:18;;;;;;;3.33;1.98;;;;;;;;;;5066511;28;20036;-79
2022/08/12 15:03:29;;;;;;;3.60;2.13;;;;;;;;;;5064979;28;20059;-81
2022/08/12 15:06:03;;;;;;;2.80;1.92;;;;;;;;;;5067928;28;20028;-77
2022/08/12 15:08:34;;;;;;;3.00;2.13;;;;;;;;;;5070498;28;20036;-81
2022/08/12 15:11:01;;;;;;;3.63;2.22;;;;;;;;;;5066928;28;20032;-78
2022/08/12 15:13:30;;;;;;;3.90;2.20;;;;;;;;;;5073504;28;20158;-81
2022/08/12 15:15:57;;;;;;;3.55;2.10;;;;;;;;;;5063856;28;20465;-77
2022/08/12 15:18:23;;;;;;;3.38;1.83;;;;;;;;;;5072407;28;20029;-87
2022/08/12 15:20:51;;;;;;;3.08;2.00;;;;;;;;;;5066292;28;20025;-77
2022/08/12 15:23:17;;;;;;;4.65;1.90;;;;;;;;;;5070970;28;20433;-80
2022/08/12 15:25:44;;;;;;;3.08;2.00;;;;;;;;;;5071810;28;20107;-82
2022/08/12 15:28:10;;;;;;;3.25;1.90;;;;;;;;;;5065971;28;20070;-83
2022/08/12 15:30:38;;;;;;;3.83;2.00;;;;;;;;;;5070366;28;20475;-79
2022/08/12 15:33:10;;;;;;;3.45;2.00;;;;;;;;;;5062768;28;20091;-79
2022/08/12 15:35:36;;;;;;;3.00;2.05;;;;;;;;;;5072805;28;20029;-81
2022/08/12 15:38:05;;;;;;;3.63;1.90;;;;;;;;;;5068012;28;20060;-81
2022/08/12 15:40:32;;;;;;;2.80;1.95;;;;;;;;;;5069125;28;20034;-84
2022/08/12 15:42:59;;;;;;;3.95;1.98;;;;;;;;;;5069291;28;20070;-77
2022/08/12 15:45:27;;;;;;;4.15;2.10;;;;;;;;;;5067151;28;20032;-89
2022/08/12 15:47:53;;;;;;;3.35;1.92;;;;;;;;;;5066141;28;20025;-79
2022/08/12 15:50:23;;;;;;;4.35;1.90;;;;;;;;;;5064180;28;20503;-81
2022/08/12 15:52:53;;;;;;;3.85;2.10;;;;;;;;;;5068332;28;20078;-81
2022/08/12 15:55:19;;;;;;;5.85;2.00;;;;;;;;;;5070643;28;20027;-90
2022/08/12 15:57:51;;;;;;;4.28;2.10;;;;;;;;;;5064406;28;20397;-80
2022/08/12 16:00:18;;;;;;;4.20;1.98;;;;;;;;;;5064642;28;20078;-79
2022/08/12 16:02:44;;;;;;;3.50;1.77;;;;;;;;;;5069696;28;20032;-80
2022/08/12 16:05:10;;;;;;;4.68;2.08;;;;;;;;;;5069498;28;20033;-81
2022/08/12 16:07:35;;;;;;;3.15;2.20;;;;;;;;;;5066714;28;20493;-81
2022/08/12 16:10:00;;;;;;;2.53;2.03;;;;;;;;;;5062608;28;20036;-79
2022/08/12 16:12:26;;;;;;;3.65;1.98;;;;;;;;;;5071111;28;20036;-79
2022/08/12 16:14:53;;;;;;;3.50;1.80;;;;;;;;;;5068800;28;20021;-77
2022/08/12 16:17:22;;;;;;;5.28;1.95;;;;;;;;;;5059962;28;20400;-80
2022/08/12 16:19:48;;;;;;;2.90;1.75;;;;;;;;;;5063385;28;20549;-88
2022/08/12 16:22:14;;;;;;;3.75;1.90;;;;;;;;;;5067574;28;20469;-77
2022/08/12 16:24:42;;;;;;;2.03;1.42;;;;;;;;;;5071297;28;20028;-80
2022/08/12 16:27:08;;;;;;;2.60;1.70;;;;;;;;;;5067411;28;20531;-80
2022/08/12 16:29:38;;;;;;;3.38;1.70;;;;;;;;;;5053974;28;20024;-76
2022/08/12 16:32:07;;;;;;;2.88;1.50;;;;;;;;;;5068094;28;20061;-77
2022/08/12 16:34:35;;;;;;;4.57;1.70;;;;;;;;;;5064140;28;20044;-79
2022/08/12 16:37:03;;;;;;;2.83;1.55;;;;;;;;;;5064989;28;20541;-87